Utica, NY

2:13 AM EDT on July 03, 2015 (GMT -0400)
South Utica NY | Change Station
CLOSE
Current Station
Personal Weather Station
Location: Utica, NY
Elevation: 633 ft
Nearby Weather Stations

Elev 633 ft 43.08 °N, 75.26 °W | Updated 8 minutes ago

Clear
Clear
49.6 °F
Feels Like 50 °F
N
0.0
Wind Variable Wind from South
Gusts 1.0 mph

Today
High -- | Low -- °F
--% Chance of Precip.
Yesterday
High -- | Low -- °F
Precip. -- in
5:26 AM 8:43 PM
Full, 98% visible
Pressure 29.99 in
Visibility 10.0 miles
Clouds Clear
Windchill 50 °F
Dew Point 47 °F
Humidity 92%
Rainfall 0.00 in
Snow Depth Not available.
UV 0 out of 12
Pollen 4.70 out of 12
Air Quality Not available.
Flu Activity Not available.
METAR KRME 030553Z AUTO 00000KT 10SM CLR 09/08 A3000 RMK AO2 SLP156 T00940083 10189 20089 53009

More Conditions Fewer Conditions

Pressure 29.99 in
Visibility 10.0 miles
Clouds Clear
Windchill 50 °F
Dew Point 47 °F
Humidity 92%
Rainfall 0.00 in
Snow Depth Not available.
UV 0 out of 12
Pollen 4.70 out of 12
Air Quality Not available.
Flu Activity Not available.
METAR KRME 030553Z AUTO 00000KT 10SM CLR 09/08 A3000 RMK AO2 SLP156 T00940083 10189 20089 53009

More Conditions Fewer Conditions

10-Day Weather Forecast

Almanac

Astronomy

Jul. 03, 2015 Rise Set
Actual Time 5:26 AM EDT 8:43 PM EDT
Civil Twilight 4:51 AM EDT 9:18 PM EDT
Nautical Twilight 4:05 AM EDT 10:04 PM EDT
Astronomical Twilight 3:09 AM EDT 11:00 PM EDT
Moon 9:46 PM EDT 7:15 AM EDT
Length of Visible Light 16h 27m
Length of Day
15h 17m
Tomorrow will be 0m 49s shorter.
Full, 98% of the Moon is Illuminated
Today
Full
Jul 8
Last Quarter
Jul 15
New
Jul 24
First Quarter
Jul 31
Full

Today's Extremes

State Highs State Lows

Community

WunderPhotos

Upload Photos

1,834,634 photos uploaded!

Nearby

Air Quality

  Air Quality AQ Index Pollutant
Yesterday Good
PM2.5
Friday Good
OZONE
Friday Good
PM2.5

Snow Depth

Station Depth Elevation
No new snow has been reported.

Earthquake Activity

City Distance Mag. Time & Date
No recent earthquake activity has been reported nearby.
Minimum magnitude displayed is 2.5.

Coastal Water Temperatures

Place Temperature
No Stations Reporting

Nearby Weather Stations